sensor_id;sensor_type;location;lat;lon;timestamp;pressure;altitude;pressure_sealevel;temperature;humidity
56400;BME280;42298;53.638;9.876;2024-03-07T00:02:13;103429.91;;;4.31;100.00
56400;BME280;42298;53.638;9.876;2024-03-07T00:04:38;103436.19;;;4.27;100.00
56400;BME280;42298;53.638;9.876;2024-03-07T00:07:04;103427.53;;;4.23;100.00
56400;BME280;42298;53.638;9.876;2024-03-07T00:09:31;103439.72;;;4.27;100.00
56400;BME280;42298;53.638;9.876;2024-03-07T00:11:57;103451.78;;;4.34;100.00
56400;BME280;42298;53.638;9.876;2024-03-07T00:14:22;103452.91;;;4.27;100.00
56400;BME280;42298;53.638;9.876;2024-03-07T00:16:56;103461.19;;;4.42;100.00
56400;BME280;42298;53.638;9.876;2024-03-07T00:19:22;103453.59;;;4.32;100.00
56400;BME280;42298;53.638;9.876;2024-03-07T00:21:51;103469.09;;;4.42;100.00
56400;BME280;42298;53.638;9.876;2024-03-07T00:24:17;103473.31;;;4.47;100.00
56400;BME280;42298;53.638;9.876;2024-03-07T00:26:42;103487.22;;;4.52;100.00
56400;BME280;42298;53.638;9.876;2024-03-07T00:29:07;103490.88;;;4.48;100.00
56400;BME280;42298;53.638;9.876;2024-03-07T00:31:33;103483.13;;;4.44;100.00
56400;BME280;42298;53.638;9.876;2024-03-07T00:33:59;103492.69;;;4.46;100.00
56400;BME280;42298;53.638;9.876;2024-03-07T00:36:24;103487.41;;;4.46;100.00
56400;BME280;42298;53.638;9.876;2024-03-07T00:38:51;103490.91;;;4.47;100.00
56400;BME280;42298;53.638;9.876;2024-03-07T00:41:16;103498.03;;;4.45;100.00
56400;BME280;42298;53.638;9.876;2024-03-07T00:43:42;103499.72;;;4.47;100.00
56400;BME280;42298;53.638;9.876;2024-03-07T00:46:08;103505.47;;;4.59;100.00
56400;BME280;42298;53.638;9.876;2024-03-07T00:48:33;103508.84;;;4.62;100.00
56400;BME280;42298;53.638;9.876;2024-03-07T00:50:58;103510.81;;;4.57;100.00
56400;BME280;42298;53.638;9.876;2024-03-07T00:53:24;103516.25;;;4.52;100.00
56400;BME280;42298;53.638;9.876;2024-03-07T00:55:49;103518.97;;;4.49;100.00
56400;BME280;42298;53.638;9.876;2024-03-07T00:58:14;103517.06;;;4.54;100.00
56400;BME280;42298;53.638;9.876;2024-03-07T01:00:40;103529.13;;;4.62;100.00
56400;BME280;42298;53.638;9.876;2024-03-07T01:03:11;103535.22;;;4.64;100.00
56400;BME280;42298;53.638;9.876;2024-03-07T01:05:38;103545.13;;;4.57;100.00
56400;BME280;42298;53.638;9.876;2024-03-07T01:08:04;103560.47;;;4.71;100.00
56400;BME280;42298;53.638;9.876;2024-03-07T01:10:30;103557.03;;;4.69;100.00
56400;BME280;42298;53.638;9.876;2024-03-07T01:12:55;103571.16;;;4.68;100.00
56400;BME280;42298;53.638;9.876;2024-03-07T01:15:25;103577.09;;;4.74;100.00
56400;BME280;42298;53.638;9.876;2024-03-07T01:17:51;103585.59;;;4.83;100.00
56400;BME280;42298;53.638;9.876;2024-03-07T01:20:16;103588.25;;;4.83;100.00
56400;BME280;42298;53.638;9.876;2024-03-07T01:22:41;103597.88;;;4.84;100.00
56400;BME280;42298;53.638;9.876;2024-03-07T01:25:07;103601.28;;;4.87;100.00
56400;BME280;42298;53.638;9.876;2024-03-07T01:27:32;103609.13;;;4.89;100.00
56400;BME280;42298;53.638;9.876;2024-03-07T01:29:57;103619.34;;;5.00;100.00
56400;BME280;42298;53.638;9.876;2024-03-07T01:32:23;103623.59;;;5.04;100.00
56400;BME280;42298;53.638;9.876;2024-03-07T01:34:48;103622.66;;;5.05;100.00
56400;BME280;42298;53.638;9.876;2024-03-07T01:37:13;103615.78;;;5.01;100.00
56400;BME280;42298;53.638;9.876;2024-03-07T01:39:39;103636.81;;;5.04;100.00
56400;BME280;42298;53.638;9.876;2024-03-07T01:42:04;103645.50;;;5.07;100.00
56400;BME280;42298;53.638;9.876;2024-03-07T01:44:29;103647.38;;;5.04;100.00
56400;BME280;42298;53.638;9.876;2024-03-07T01:46:57;103672.16;;;5.00;100.00
56400;BME280;42298;53.638;9.876;2024-03-07T01:49:23;103691.91;;;4.89;100.00
56400;BME280;42298;53.638;9.876;2024-03-07T01:51:48;103714.78;;;4.89;100.00
56400;BME280;42298;53.638;9.876;2024-03-07T01:54:13;103740.81;;;5.01;100.00
56400;BME280;42298;53.638;9.876;2024-03-07T01:56:39;103772.53;;;5.00;100.00
56400;BME280;42298;53.638;9.876;2024-03-07T01:59:06;103784.13;;;4.95;100.00
56400;BME280;42298;53.638;9.876;2024-03-07T02:01:32;103823.66;;;4.98;100.00
56400;BME280;42298;53.638;9.876;2024-03-07T02:03:58;103848.53;;;4.91;100.00
56400;BME280;42298;53.638;9.876;2024-03-07T02:06:23;103882.75;;;4.96;100.00
56400;BME280;42298;53.638;9.876;2024-03-07T02:08:49;103906.63;;;4.91;100.00
56400;BME280;42298;53.638;9.876;2024-03-07T02:11:14;103932.25;;;4.89;100.00
56400;BME280;42298;53.638;9.876;2024-03-07T02:13:39;103981.28;;;4.98;100.00
56400;BME280;42298;53.638;9.876;2024-03-07T02:16:05;104297.31;;;5.04;100.00
56400;BME280;42298;53.638;9.876;2024-03-07T02:18:30;104245.88;;;5.17;100.00
56400;BME280;42298;53.638;9.876;2024-03-07T02:20:55;104242.31;;;5.18;100.00
56400;BME280;42298;53.638;9.876;2024-03-07T02:23:21;104286.59;;;5.10;100.00
56400;BME280;42298;53.638;9.876;2024-03-07T02:25:46;104293.59;;;5.11;100.00
56400;BME280;42298;53.638;9.876;2024-03-07T02:28:11;104281.59;;;4.97;100.00
56400;BME280;42298;53.638;9.876;2024-03-07T02:30:37;104281.81;;;4.88;100.00
56400;BME280;42298;53.638;9.876;2024-03-07T02:33:02;104288.88;;;4.88;100.00
56400;BME280;42298;53.638;9.876;2024-03-07T02:35:35;104292.50;;;4.84;100.00
56400;BME280;42298;53.638;9.876;2024-03-07T02:38:04;104297.69;;;4.87;100.00
56400;BME280;42298;53.638;9.876;2024-03-07T02:40:33;104295.88;;;4.89;100.00
56400;BME280;42298;53.638;9.876;2024-03-07T02:42:59;104302.81;;;4.94;100.00
56400;BME280;42298;53.638;9.876;2024-03-07T02:45:25;104318.47;;;5.02;100.00
56400;BME280;42298;53.638;9.876;2024-03-07T02:47:51;104317.69;;;4.98;100.00
56400;BME280;42298;53.638;9.876;2024-03-07T02:50:17;104326.34;;;5.05;100.00
56400;BME280;42298;53.638;9.876;2024-03-07T02:52:42;104313.88;;;5.10;100.00
56400;BME280;42298;53.638;9.876;2024-03-07T02:55:07;104313.84;;;5.12;100.00
56400;BME280;42298;53.638;9.876;2024-03-07T02:57:36;104304.16;;;5.11;100.00
56400;BME280;42298;53.638;9.876;2024-03-07T03:00:16;104280.50;;;5.06;100.00
56400;BME280;42298;53.638;9.876;2024-03-07T03:02:46;104268.25;;;5.02;100.00
56400;BME280;42298;53.638;9.876;2024-03-07T03:05:12;104266.69;;;4.95;100.00
56400;BME280;42298;53.638;9.876;2024-03-07T03:07:39;104241.63;;;4.75;100.00
56400;BME280;42298;53.638;9.876;2024-03-07T03:10:05;104238.09;;;4.76;100.00
56400;BME280;42298;53.638;9.876;2024-03-07T03:12:35;104233.88;;;4.69;100.00
56400;BME280;42298;53.638;9.876;2024-03-07T03:15:02;104244.22;;;4.79;100.00
56400;BME280;42298;53.638;9.876;2024-03-07T03:17:30;104243.25;;;4.81;100.00
56400;BME280;42298;53.638;9.876;2024-03-07T03:19:55;104237.06;;;4.82;100.00
56400;BME280;42298;53.638;9.876;2024-03-07T03:22:21;104230.03;;;4.83;100.00
56400;BME280;42298;53.638;9.876;2024-03-07T03:24:46;104240.38;;;4.90;100.00
56400;BME280;42298;53.638;9.876;2024-03-07T03:27:12;104231.59;;;4.90;100.00
56400;BME280;42298;53.638;9.876;2024-03-07T03:29:37;104207.47;;;4.69;100.00
56400;BME280;42298;53.638;9.876;2024-03-07T03:32:02;104181.22;;;4.62;100.00
56400;BME280;42298;53.638;9.876;2024-03-07T03:34:28;104170.91;;;4.52;100.00
56400;BME280;42298;53.638;9.876;2024-03-07T03:36:53;104146.59;;;4.38;100.00
56400;BME280;42298;53.638;9.876;2024-03-07T03:39:19;104135.28;;;4.33;100.00
56400;BME280;42298;53.638;9.876;2024-03-07T03:41:46;104121.28;;;4.29;100.00
56400;BME280;42298;53.638;9.876;2024-03-07T03:44:11;104104.81;;;4.21;100.00
56400;BME280;42298;53.638;9.876;2024-03-07T03:46:36;104106.41;;;4.27;100.00
56400;BME280;42298;53.638;9.876;2024-03-07T03:49:02;104095.94;;;4.24;100.00
56400;BME280;42298;53.638;9.876;2024-03-07T03:51:27;104078.72;;;4.07;100.00
56400;BME280;42298;53.638;9.876;2024-03-07T03:53:53;104075.22;;;4.07;100.00
56400;BME280;42298;53.638;9.876;2024-03-07T03:56:18;104066.38;;;4.09;100.00
56400;BME280;42298;53.638;9.876;2024-03-07T03:58:44;104060.31;;;4.06;100.00
56400;BME280;42298;53.638;9.876;2024-03-07T04:01:09;104071.72;;;4.08;100.00
56400;BME280;42298;53.638;9.876;2024-03-07T04:03:38;104056.16;;;3.96;100.00
56400;BME280;42298;53.638;9.876;2024-03-07T04:06:04;104056.03;;;4.00;100.00
56400;BME280;42298;53.638;9.876;2024-03-07T04:08:30;104050.91;;;3.94;100.00
56400;BME280;42298;53.638;9.876;2024-03-07T04:10:55;104057.06;;;3.94;100.00
56400;BME280;42298;53.638;9.876;2024-03-07T04:13:20;104057.03;;;3.96;100.00
56400;BME280;42298;53.638;9.876;2024-03-07T04:15:47;104058.78;;;3.97;100.00
56400;BME280;42298;53.638;9.876;2024-03-07T04:18:12;104065.63;;;4.04;100.00
56400;BME280;42298;53.638;9.876;2024-03-07T04:20:38;104057.81;;;4.01;100.00
56400;BME280;42298;53.638;9.876;2024-03-07T04:23:04;104059.50;;;4.04;100.00
56400;BME280;42298;53.638;9.876;2024-03-07T04:25:31;104055.31;;;3.93;100.00
56400;BME280;42298;53.638;9.876;2024-03-07T04:27:58;104049.44;;;3.82;100.00
56400;BME280;42298;53.638;9.876;2024-03-07T04:30:23;104021.66;;;3.67;100.00
56400;BME280;42298;53.638;9.876;2024-03-07T04:32:49;104024.47;;;3.61;100.00
56400;BME280;42298;53.638;9.876;2024-03-07T04:35:14;104030.69;;;3.57;100.00
56400;BME280;42298;53.638;9.876;2024-03-07T04:37:39;104040.41;;;3.55;100.00
56400;BME280;42298;53.638;9.876;2024-03-07T04:40:09;104008.25;;;3.39;100.00
56400;BME280;42298;53.638;9.876;2024-03-07T04:42:47;104003.16;;;3.31;100.00
56400;BME280;42298;53.638;9.876;2024-03-07T04:45:15;103996.19;;;3.27;100.00
56400;BME280;42298;53.638;9.876;2024-03-07T04:47:42;103979.72;;;3.19;100.00
56400;BME280;42298;53.638;9.876;2024-03-07T04:50:08;103971.03;;;3.14;100.00
56400;BME280;42298;53.638;9.876;2024-03-07T04:52:36;103966.47;;;3.22;100.00
56400;BME280;42298;53.638;9.876;2024-03-07T04:55:03;103938.66;;;3.09;100.00
56400;BME280;42298;53.638;9.876;2024-03-07T04:57:28;103920.34;;;3.03;100.00
56400;BME280;42298;53.638;9.876;2024-03-07T04:59:54;103911.69;;;2.98;100.00
56400;BME280;42298;53.638;9.876;2024-03-07T05:02:20;103902.13;;;2.94;100.00
56400;BME280;42298;53.638;9.876;2024-03-07T05:04:45;103877.78;;;2.84;100.00
56400;BME280;42298;53.638;9.876;2024-03-07T05:07:11;103882.16;;;2.83;100.00
56400;BME280;42298;53.638;9.876;2024-03-07T05:09:37;103862.09;;;2.79;100.00
56400;BME280;42298;53.638;9.876;2024-03-07T05:12:02;103869.69;;;2.93;100.00
56400;BME280;42298;53.638;9.876;2024-03-07T05:14:28;103859.13;;;2.95;100.00
56400;BME280;42298;53.638;9.876;2024-03-07T05:16:53;103856.56;;;2.90;100.00
56400;BME280;42298;53.638;9.876;2024-03-07T05:19:34;103841.94;;;2.77;100.00
56400;BME280;42298;53.638;9.876;2024-03-07T05:22:00;103836.72;;;2.75;100.00
56400;BME280;42298;53.638;9.876;2024-03-07T05:24:26;103835.16;;;2.66;100.00
56400;BME280;42298;53.638;9.876;2024-03-07T05:26:52;103838.59;;;2.70;100.00
56400;BME280;42298;53.638;9.876;2024-03-07T05:29:19;103829.88;;;2.68;100.00
56400;BME280;42298;53.638;9.876;2024-03-07T05:31:45;103827.41;;;2.60;100.00
56400;BME280;42298;53.638;9.876;2024-03-07T05:34:12;103833.31;;;2.70;100.00
56400;BME280;42298;53.638;9.876;2024-03-07T05:36:38;103831.50;;;2.72;100.00
56400;BME280;42298;53.638;9.876;2024-03-07T05:39:10;103840.22;;;2.76;100.00
56400;BME280;42298;53.638;9.876;2024-03-07T05:41:39;103816.72;;;2.68;100.00
56400;BME280;42298;53.638;9.876;2024-03-07T05:44:06;103815.16;;;2.59;100.00
56400;BME280;42298;53.638;9.876;2024-03-07T05:46:43;103816.88;;;2.60;100.00
56400;BME280;42298;53.638;9.876;2024-03-07T05:49:15;103824.50;;;2.73;100.00
56400;BME280;42298;53.638;9.876;2024-03-07T05:51:42;103824.31;;;2.80;100.00
56400;BME280;42298;53.638;9.876;2024-03-07T05:54:10;103828.72;;;2.81;100.00
56400;BME280;42298;53.638;9.876;2024-03-07T05:56:38;103820.69;;;2.86;100.00
56400;BME280;42298;53.638;9.876;2024-03-07T05:59:03;103811.91;;;2.85;100.00
56400;BME280;42298;53.638;9.876;2024-03-07T06:01:38;103812.63;;;2.92;100.00
56400;BME280;42298;53.638;9.876;2024-03-07T06:04:05;103800.63;;;2.80;100.00
56400;BME280;42298;53.638;9.876;2024-03-07T06:06:32;103801.44;;;2.84;100.00
56400;BME280;42298;53.638;9.876;2024-03-07T06:09:07;103782.28;;;2.77;100.00
56400;BME280;42298;53.638;9.876;2024-03-07T06:11:37;103771.06;;;2.69;100.00
56400;BME280;42298;53.638;9.876;2024-03-07T06:14:03;103766.75;;;2.65;100.00
56400;BME280;42298;53.638;9.876;2024-03-07T06:16:30;103766.00;;;2.60;100.00
56400;BME280;42298;53.638;9.876;2024-03-07T06:18:59;103761.53;;;2.63;100.00
56400;BME280;42298;53.638;9.876;2024-03-07T06:21:24;103764.97;;;2.67;100.00
56400;BME280;42298;53.638;9.876;2024-03-07T06:23:50;103756.94;;;2.73;100.00
56400;BME280;42298;53.638;9.876;2024-03-07T06:26:25;103757.78;;;2.74;100.00
56400;BME280;42298;53.638;9.876;2024-03-07T06:29:02;103759.53;;;2.75;100.00
56400;BME280;42298;53.638;9.876;2024-03-07T06:31:30;103749.19;;;2.65;100.00
56400;BME280;42298;53.638;9.876;2024-03-07T06:33:55;103749.28;;;2.62;100.00
56400;BME280;42298;53.638;9.876;2024-03-07T06:36:20;103731.94;;;2.54;100.00
56400;BME280;42298;53.638;9.876;2024-03-07T06:38:46;103748.91;;;2.79;100.00
56400;BME280;42298;53.638;9.876;2024-03-07T06:41:11;103747.94;;;2.82;100.00
56400;BME280;42298;53.638;9.876;2024-03-07T06:43:36;103761.75;;;2.92;100.00
56400;BME280;42298;53.638;9.876;2024-03-07T06:46:01;103749.50;;;2.90;100.00
56400;BME280;42298;53.638;9.876;2024-03-07T06:48:27;103740.09;;;2.80;100.00
56400;BME280;42298;53.638;9.876;2024-03-07T06:50:53;103740.72;;;2.90;100.00
56400;BME280;42298;53.638;9.876;2024-03-07T06:53:18;103742.59;;;2.85;100.00
56400;BME280;42298;53.638;9.876;2024-03-07T06:55:45;103731.44;;;2.75;100.00
56400;BME280;42298;53.638;9.876;2024-03-07T06:58:10;103737.47;;;2.79;100.00
56400;BME280;42298;53.638;9.876;2024-03-07T07:00:35;103723.31;;;2.84;100.00
56400;BME280;42298;53.638;9.876;2024-03-07T07:03:01;103732.88;;;2.88;100.00
56400;BME280;42298;53.638;9.876;2024-03-07T07:05:29;103722.50;;;2.81;100.00
56400;BME280;42298;53.638;9.876;2024-03-07T07:07:55;103728.44;;;2.90;100.00
56400;BME280;42298;53.638;9.876;2024-03-07T07:10:20;103717.41;;;2.75;100.00
56400;BME280;42298;53.638;9.876;2024-03-07T07:12:49;103718.22;;;2.77;100.00
56400;BME280;42298;53.638;9.876;2024-03-07T07:15:16;103719.25;;;2.71;100.00
56400;BME280;42298;53.638;9.876;2024-03-07T07:17:43;103725.81;;;2.90;100.00
56400;BME280;42298;53.638;9.876;2024-03-07T07:20:12;103725.53;;;3.01;100.00
56400;BME280;42298;53.638;9.876;2024-03-07T07:22:40;103712.44;;;2.98;100.00
56400;BME280;42298;53.638;9.876;2024-03-07T07:25:07;103712.31;;;3.03;100.00
56400;BME280;42298;53.638;9.876;2024-03-07T07:27:40;103709.34;;;3.17;100.00
56400;BME280;42298;53.638;9.876;2024-03-07T07:30:06;103694.66;;;3.08;100.00
56400;BME280;42298;53.638;9.876;2024-03-07T07:32:31;103700.41;;;3.22;100.00
56400;BME280;42298;53.638;9.876;2024-03-07T07:34:57;103678.53;;;3.19;100.00
56400;BME280;42298;53.638;9.876;2024-03-07T07:37:22;103672.41;;;3.18;100.00
56400;BME280;42298;53.638;9.876;2024-03-07T07:39:48;103667.16;;;3.18;100.00
56400;BME280;42298;53.638;9.876;2024-03-07T07:42:13;103647.16;;;3.11;100.00
56400;BME280;42298;53.638;9.876;2024-03-07T07:44:40;103650.59;;;3.13;100.00
56400;BME280;42298;53.638;9.876;2024-03-07T07:47:05;103641.72;;;3.17;100.00
56400;BME280;42298;53.638;9.876;2024-03-07T07:49:31;103642.41;;;3.24;100.00
56400;BME280;42298;53.638;9.876;2024-03-07T07:51:56;103629.56;;;3.11;100.00
56400;BME280;42298;53.638;9.876;2024-03-07T07:54:21;103618.19;;;3.11;100.00
56400;BME280;42298;53.638;9.876;2024-03-07T07:56:47;103624.00;;;3.22;100.00
56400;BME280;42298;53.638;9.876;2024-03-07T07:59:13;103610.16;;;3.16;100.00
56400;BME280;42298;53.638;9.876;2024-03-07T08:01:38;103609.31;;;3.14;100.00
56400;BME280;42298;53.638;9.876;2024-03-07T08:04:04;103617.06;;;3.20;100.00
56400;BME280;42298;53.638;9.876;2024-03-07T08:06:29;103618.88;;;3.18;100.00
56400;BME280;42298;53.638;9.876;2024-03-07T08:08:55;103604.09;;;3.12;100.00
56400;BME280;42298;53.638;9.876;2024-03-07T08:11:20;103593.66;;;3.09;100.00
56400;BME280;42298;53.638;9.876;2024-03-07T08:13:46;103599.50;;;3.19;100.00
56400;BME280;42298;53.638;9.876;2024-03-07T08:16:15;103598.19;;;3.35;100.00
56400;BME280;42298;53.638;9.876;2024-03-07T08:18:41;103591.69;;;3.47;100.00
56400;BME280;42298;53.638;9.876;2024-03-07T08:21:06;103591.63;;;3.50;100.00
56400;BME280;42298;53.638;9.876;2024-03-07T08:23:32;103577.66;;;3.46;100.00
56400;BME280;42298;53.638;9.876;2024-03-07T08:25:58;103577.69;;;3.45;100.00
56400;BME280;42298;53.638;9.876;2024-03-07T08:28:23;103556.06;;;3.34;100.00
56400;BME280;42298;53.638;9.876;2024-03-07T08:30:49;103550.97;;;3.27;100.00
56400;BME280;42298;53.638;9.876;2024-03-07T08:33:14;103552.56;;;3.35;100.00
56400;BME280;42298;53.638;9.876;2024-03-07T08:35:40;103541.72;;;3.44;100.00
56400;BME280;42298;53.638;9.876;2024-03-07T08:38:05;103547.56;;;3.53;100.00
56400;BME280;42298;53.638;9.876;2024-03-07T08:40:31;103536.28;;;3.50;100.00
56400;BME280;42298;53.638;9.876;2024-03-07T08:42:58;103535.16;;;3.59;100.00
56400;BME280;42298;53.638;9.876;2024-03-07T08:45:24;103526.13;;;3.66;100.00
56400;BME280;42298;53.638;9.876;2024-03-07T08:47:55;103524.97;;;3.75;100.00
56400;BME280;42298;53.638;9.876;2024-03-07T08:50:21;103522.38;;;3.73;100.00
56400;BME280;42298;53.638;9.876;2024-03-07T08:52:47;103522.00;;;3.85;100.00
56400;BME280;42298;53.638;9.876;2024-03-07T08:55:23;103508.44;;;3.69;100.00
56400;BME280;42298;53.638;9.876;2024-03-07T08:57:50;103504.59;;;3.80;100.00
56400;BME280;42298;53.638;9.876;2024-03-07T09:00:17;103502.75;;;3.83;100.00
56400;BME280;42298;53.638;9.876;2024-03-07T09:05:18;103513.13;;;4.14;100.00
56400;BME280;42298;53.638;9.876;2024-03-07T09:07:45;103499.84;;;4.18;100.00
56400;BME280;42298;53.638;9.876;2024-03-07T09:10:12;103501.75;;;4.39;100.00
56400;BME280;42298;53.638;9.876;2024-03-07T09:12:37;103497.16;;;4.44;100.00
56400;BME280;42298;53.638;9.876;2024-03-07T09:15:04;103478.47;;;4.25;100.00
56400;BME280;42298;53.638;9.876;2024-03-07T09:17:29;103462.28;;;4.09;100.00
56400;BME280;42298;53.638;9.876;2024-03-07T09:19:55;103453.84;;;4.00;100.00
56400;BME280;42298;53.638;9.876;2024-03-07T09:22:20;103459.22;;;3.97;100.00
56400;BME280;42298;53.638;9.876;2024-03-07T09:24:45;103450.84;;;3.84;100.00
56400;BME280;42298;53.638;9.876;2024-03-07T09:27:11;103443.09;;;3.79;100.00
56400;BME280;42298;53.638;9.876;2024-03-07T09:29:38;103451.56;;;3.62;100.00
56400;BME280;42298;53.638;9.876;2024-03-07T09:32:04;103444.16;;;3.45;100.00
56400;BME280;42298;53.638;9.876;2024-03-07T09:34:29;103452.38;;;3.64;100.00
56400;BME280;42298;53.638;9.876;2024-03-07T09:36:56;103463.47;;;4.01;100.00
56400;BME280;42298;53.638;9.876;2024-03-07T09:39:21;103467.88;;;4.00;100.00
56400;BME280;42298;53.638;9.876;2024-03-07T09:41:46;103461.88;;;3.97;100.00
56400;BME280;42298;53.638;9.876;2024-03-07T09:44:15;103470.38;;;4.05;100.00
56400;BME280;42298;53.638;9.876;2024-03-07T09:46:47;103469.66;;;4.00;100.00
56400;BME280;42298;53.638;9.876;2024-03-07T09:49:14;103473.22;;;3.99;100.00
56400;BME280;42298;53.638;9.876;2024-03-07T09:51:39;103479.34;;;3.99;100.00
56400;BME280;42298;53.638;9.876;2024-03-07T09:54:05;103481.22;;;3.96;100.00
56400;BME280;42298;53.638;9.876;2024-03-07T09:56:31;103495.03;;;4.04;100.00
56400;BME280;42298;53.638;9.876;2024-03-07T09:58:58;103500.19;;;4.07;100.00
56400;BME280;42298;53.638;9.876;2024-03-07T10:01:28;103505.88;;;3.94;100.00
56400;BME280;42298;53.638;9.876;2024-03-07T10:04:00;103505.81;;;3.96;100.00
56400;BME280;42298;53.638;9.876;2024-03-07T10:06:37;103516.78;;;3.84;100.00
56400;BME280;42298;53.638;9.876;2024-03-07T10:09:04;103526.03;;;3.69;100.00
56400;BME280;42298;53.638;9.876;2024-03-07T10:11:29;103529.09;;;3.55;100.00
56400;BME280;42298;53.638;9.876;2024-03-07T10:13:55;103534.22;;;3.60;100.00
56400;BME280;42298;53.638;9.876;2024-03-07T10:16:20;103553.16;;;3.72;100.00
56400;BME280;42298;53.638;9.876;2024-03-07T10:18:46;103551.91;;;3.84;100.00
56400;BME280;42298;53.638;9.876;2024-03-07T10:21:14;103568.28;;;3.94;100.00
56400;BME280;42298;53.638;9.876;2024-03-07T10:23:42;103567.28;;;3.98;100.00
56400;BME280;42298;53.638;9.876;2024-03-07T10:26:07;103572.25;;;4.07;100.00
56400;BME280;42298;53.638;9.876;2024-03-07T10:28:32;103584.25;;;4.18;100.00
56400;BME280;42298;53.638;9.876;2024-03-07T10:30:59;103581.66;;;4.16;100.00
56400;BME280;42298;53.638;9.876;2024-03-07T10:33:27;103592.97;;;4.20;100.00
56400;BME280;42298;53.638;9.876;2024-03-07T10:35:53;103589.50;;;4.19;100.00
56400;BME280;42298;53.638;9.876;2024-03-07T10:38:18;103576.94;;;3.99;100.00
56400;BME280;42298;53.638;9.876;2024-03-07T10:40:47;103586.38;;;4.06;100.00
56400;BME280;42298;53.638;9.876;2024-03-07T10:43:12;103596.09;;;4.04;100.00
56400;BME280;42298;53.638;9.876;2024-03-07T10:45:47;103597.84;;;4.05;100.00
56400;BME280;42298;53.638;9.876;2024-03-07T10:48:13;103604.34;;;4.22;100.00
56400;BME280;42298;53.638;9.876;2024-03-07T10:59:16;103624.81;;;4.42;100.00
56400;BME280;42298;53.638;9.876;2024-03-07T11:04:30;103614.25;;;4.42;100.00
56400;BME280;42298;53.638;9.876;2024-03-07T11:06:56;103621.06;;;4.49;100.00
56400;BME280;42298;53.638;9.876;2024-03-07T11:09:24;103622.53;;;4.57;100.00
56400;BME280;42298;53.638;9.876;2024-03-07T11:11:54;103630.09;;;4.68;100.00
56400;BME280;42298;53.638;9.876;2024-03-07T11:14:21;103634.03;;;4.82;100.00
56400;BME280;42298;53.638;9.876;2024-03-07T11:16:48;103625.78;;;4.91;100.00
56400;BME280;42298;53.638;9.876;2024-03-07T11:19:24;103618.03;;;4.86;100.00
56400;BME280;42298;53.638;9.876;2024-03-07T11:21:52;103627.72;;;5.11;100.00
56400;BME280;42298;53.638;9.876;2024-03-07T11:24:30;103616.25;;;5.12;100.00
56400;BME280;42298;53.638;9.876;2024-03-07T11:26:58;103599.06;;;5.00;100.00
56400;BME280;42298;53.638;9.876;2024-03-07T11:29:39;103596.38;;;5.02;100.00
56400;BME280;42298;53.638;9.876;2024-03-07T11:32:10;103589.38;;;5.01;100.00
56400;BME280;42298;53.638;9.876;2024-03-07T11:34:43;103581.09;;;5.10;100.00
56400;BME280;42298;53.638;9.876;2024-03-07T11:37:17;103590.19;;;5.26;100.00
56400;BME280;42298;53.638;9.876;2024-03-07T11:39:46;103585.66;;;5.30;100.00
56400;BME280;42298;53.638;9.876;2024-03-07T11:44:45;103570.22;;;5.43;100.00
56400;BME280;42298;53.638;9.876;2024-03-07T11:47:12;103584.56;;;5.59;100.00
56400;BME280;42298;53.638;9.876;2024-03-07T11:49:38;103565.56;;;5.49;100.00
56400;BME280;42298;53.638;9.876;2024-03-07T11:52:04;103561.00;;;5.53;100.00
56400;BME280;42298;53.638;9.876;2024-03-07T11:54:37;103549.78;;;5.46;100.00
56400;BME280;42298;53.638;9.876;2024-03-07T11:57:06;103541.69;;;5.51;100.00
56400;BME280;42298;53.638;9.876;2024-03-07T11:59:40;103544.75;;;5.62;100.00
56400;BME280;42298;53.638;9.876;2024-03-07T12:02:10;103538.63;;;5.62;100.00
56400;BME280;42298;53.638;9.876;2024-03-07T12:04:35;103534.75;;;5.70;100.00
56400;BME280;42298;53.638;9.876;2024-03-07T12:07:01;103530.09;;;5.77;100.00
56400;BME280;42298;53.638;9.876;2024-03-07T12:09:26;103526.25;;;5.84;100.00
56400;BME280;42298;53.638;9.876;2024-03-07T12:11:51;103540.47;;;6.05;100.00
56400;BME280;42298;53.638;9.876;2024-03-07T12:14:21;103518.34;;;6.06;100.00
56400;BME280;42298;53.638;9.876;2024-03-07T12:16:46;103512.84;;;6.11;100.00
56400;BME280;42298;53.638;9.876;2024-03-07T12:19:12;103502.22;;;6.12;100.00
56400;BME280;42298;53.638;9.876;2024-03-07T12:21:42;103496.94;;;6.12;100.00
56400;BME280;42298;53.638;9.876;2024-03-07T12:24:14;103494.94;;;6.17;100.00
56400;BME280;42298;53.638;9.876;2024-03-07T12:26:43;103480.19;;;6.12;100.00
56400;BME280;42298;53.638;9.876;2024-03-07T12:29:10;103474.16;;;6.08;100.00
56400;BME280;42298;53.638;9.876;2024-03-07T12:31:38;103470.19;;;5.98;100.00
56400;BME280;42298;53.638;9.876;2024-03-07T12:34:03;103470.19;;;5.98;100.00
56400;BME280;42298;53.638;9.876;2024-03-07T12:36:30;103465.56;;;6.03;100.00
56400;BME280;42298;53.638;9.876;2024-03-07T12:39:02;103473.16;;;6.11;100.00
56400;BME280;42298;53.638;9.876;2024-03-07T12:41:34;103477.34;;;6.16;100.00
56400;BME280;42298;53.638;9.876;2024-03-07T12:44:00;103463.13;;;6.19;100.00
56400;BME280;42298;53.638;9.876;2024-03-07T12:46:25;103470.00;;;6.23;100.00
56400;BME280;42298;53.638;9.876;2024-03-07T12:48:52;103467.50;;;6.20;100.00
56400;BME280;42298;53.638;9.876;2024-03-07T12:51:20;103453.94;;;6.07;100.00
56400;BME280;42298;53.638;9.876;2024-03-07T12:53:47;103446.41;;;5.98;100.00
56400;BME280;42298;53.638;9.876;2024-03-07T12:56:13;103448.03;;;6.00;100.00
56400;BME280;42298;53.638;9.876;2024-03-07T12:58:44;103455.63;;;6.08;100.00
56400;BME280;42298;53.638;9.876;2024-03-07T13:01:10;103443.66;;;5.99;100.00
56400;BME280;42298;53.638;9.876;2024-03-07T13:03:36;103453.94;;;6.07;100.00
56400;BME280;42298;53.638;9.876;2024-03-07T13:06:01;103445.75;;;6.13;100.00